createdAt,value
2022-12-19T00:01:57.457Z,24.62
2022-12-19T00:04:02.561Z,24.62
2022-12-19T00:06:12.966Z,24.61
2022-12-19T00:08:18.004Z,24.66
2022-12-19T00:10:22.515Z,24.65
2022-12-19T00:12:26.881Z,24.65
2022-12-19T00:14:31.249Z,24.63
2022-12-19T00:16:35.610Z,24.63
2022-12-19T00:18:41.148Z,24.63
2022-12-19T00:20:45.481Z,24.6
2022-12-19T00:22:49.869Z,24.6
2022-12-19T00:24:55.462Z,24.59
2022-12-19T00:26:59.792Z,24.58
2022-12-19T00:29:09.911Z,24.56
2022-12-19T00:31:18.806Z,24.55
2022-12-19T00:33:23.384Z,24.55
2022-12-19T00:35:27.761Z,24.54
2022-12-19T00:37:32.143Z,24.55
2022-12-19T00:39:36.564Z,24.57
2022-12-19T00:41:41.922Z,24.55
2022-12-19T00:43:46.723Z,24.56
2022-12-19T00:45:51.097Z,24.52
2022-12-19T00:47:55.672Z,24.5
2022-12-19T00:50:00.045Z,24.49
2022-12-19T00:52:04.398Z,24.47
2022-12-19T00:54:08.732Z,24.47
2022-12-19T00:56:15.532Z,24.46
2022-12-19T00:58:19.848Z,24.44
2022-12-19T01:00:24.184Z,24.44
2022-12-19T01:02:28.635Z,24.42
2022-12-19T01:04:38.336Z,24.43
2022-12-19T01:06:45.700Z,24.42
2022-12-19T01:08:50.711Z,24.39
2022-12-19T01:10:55.074Z,24.41
2022-12-19T01:12:59.445Z,24.4
2022-12-19T01:15:05.102Z,24.4
2022-12-19T01:17:09.692Z,24.4
2022-12-19T01:19:14.057Z,24.39
2022-12-19T01:21:18.367Z,24.39
2022-12-19T01:23:22.733Z,24.35
2022-12-19T01:25:27.066Z,24.36
2022-12-19T01:27:31.442Z,24.36
2022-12-19T01:29:36.765Z,24.36
2022-12-19T01:31:56.665Z,24.35
2022-12-19T01:34:01.417Z,24.36
2022-12-19T01:36:05.862Z,24.36
2022-12-19T01:38:10.220Z,24.34
2022-12-19T01:40:14.582Z,24.35
2022-12-19T01:42:19.673Z,24.35
2022-12-19T01:44:27.832Z,24.35
2022-12-19T01:46:32.252Z,24.33
2022-12-19T01:48:36.852Z,24.33
2022-12-19T01:50:43.299Z,24.32
2022-12-19T01:53:06.234Z,24.32
2022-12-19T01:55:10.599Z,24.31
2022-12-19T01:57:14.864Z,24.29
2022-12-19T01:59:19.222Z,24.29
2022-12-19T02:01:23.938Z,24.28
2022-12-19T02:03:28.605Z,24.28
2022-12-19T02:05:32.998Z,24.26
2022-12-19T02:07:37.406Z,24.24
2022-12-19T02:09:41.734Z,24.24
2022-12-19T02:11:46.113Z,24.25
2022-12-19T02:13:50.535Z,24.23
2022-12-19T02:15:54.904Z,24.24
2022-12-19T02:17:59.278Z,24.23
2022-12-19T02:20:03.639Z,24.24
2022-12-19T02:22:08.017Z,24.23
2022-12-19T02:24:17.284Z,24.2
2022-12-19T02:26:21.702Z,24.19
2022-12-19T02:28:26.073Z,24.2
2022-12-19T02:30:30.453Z,24.19
2022-12-19T02:32:36.077Z,24.16
2022-12-19T02:34:44.351Z,24.17
2022-12-19T02:36:48.952Z,24.18
2022-12-19T02:38:57.515Z,24.17
2022-12-19T02:41:01.938Z,24.17
2022-12-19T02:43:06.312Z,24.18
2022-12-19T02:45:10.660Z,24.18
2022-12-19T02:47:30.888Z,24.17
2022-12-19T02:49:35.308Z,24.13
2022-12-19T02:51:39.699Z,24.13
2022-12-19T02:53:44.071Z,24.1
2022-12-19T02:55:48.540Z,24.1
2022-12-19T02:57:52.910Z,24.08
2022-12-19T02:59:57.308Z,24.06
2022-12-19T03:02:05.636Z,24.05
2022-12-19T03:04:10.783Z,24.02
2022-12-19T03:06:17.420Z,24.02
2022-12-19T03:08:21.821Z,24.03
2022-12-19T03:10:26.330Z,24.03
2022-12-19T03:12:30.741Z,24.04
2022-12-19T03:14:35.137Z,24.05
2022-12-19T03:16:39.622Z,24.07
2022-12-19T03:18:44.192Z,24.07
2022-12-19T03:20:48.561Z,24.08
2022-12-19T03:22:52.942Z,24.08
2022-12-19T03:24:57.346Z,24.09
2022-12-19T03:27:01.699Z,24.07
2022-12-19T03:29:06.042Z,24.06
2022-12-19T03:31:10.459Z,24.03
2022-12-19T03:33:15.139Z,24.02
2022-12-19T03:35:19.550Z,24.01
2022-12-19T03:37:24.075Z,23.97
2022-12-19T03:39:29.170Z,23.95
2022-12-19T03:42:00.362Z,23.93
2022-12-19T03:44:04.791Z,23.93
2022-12-19T03:46:11.447Z,23.9
2022-12-19T03:48:16.003Z,23.91
2022-12-19T03:50:20.375Z,23.89
2022-12-19T03:52:24.755Z,23.88
2022-12-19T03:54:29.202Z,23.84
2022-12-19T03:56:33.715Z,23.77
2022-12-19T03:58:38.150Z,23.76
2022-12-19T04:00:42.533Z,23.77
2022-12-19T04:02:47.270Z,23.74
2022-12-19T04:04:51.683Z,23.72
2022-12-19T04:06:56.029Z,23.71
2022-12-19T04:09:00.606Z,23.72
2022-12-19T04:11:04.988Z,23.71
2022-12-19T04:13:09.475Z,23.71
2022-12-19T04:15:13.901Z,23.67
2022-12-19T04:17:18.225Z,23.68
2022-12-19T04:19:22.622Z,23.67
2022-12-19T04:21:27.116Z,23.66
2022-12-19T04:23:31.464Z,23.64
2022-12-19T04:25:35.867Z,23.63
2022-12-19T04:27:40.229Z,23.62
2022-12-19T04:29:44.570Z,23.62
2022-12-19T04:31:48.970Z,23.61
2022-12-19T04:33:54.054Z,23.62
2022-12-19T04:35:58.469Z,23.64
2022-12-19T04:38:02.845Z,23.61
2022-12-19T04:40:09.533Z,23.61
2022-12-19T04:42:13.979Z,23.6
2022-12-19T04:44:18.328Z,23.57
2022-12-19T04:46:23.539Z,23.55
2022-12-19T04:48:28.210Z,23.56
2022-12-19T04:50:32.964Z,23.55
2022-12-19T04:52:37.903Z,23.56
2022-12-19T04:54:42.274Z,23.54
2022-12-19T04:56:46.650Z,23.53
2022-12-19T04:58:51.031Z,23.53
2022-12-19T05:00:55.407Z,23.53
2022-12-19T05:02:59.896Z,23.53
2022-12-19T05:05:05.093Z,23.54
2022-12-19T05:07:09.443Z,23.54
2022-12-19T05:09:13.819Z,23.54
2022-12-19T05:11:19.837Z,23.54
2022-12-19T05:13:24.502Z,23.55
2022-12-19T05:15:28.891Z,23.55
2022-12-19T05:17:33.351Z,23.54
2022-12-19T05:19:37.699Z,23.51
2022-12-19T05:21:42.085Z,23.52
2022-12-19T05:23:46.450Z,23.53
2022-12-19T05:25:50.958Z,23.52
2022-12-19T05:27:55.330Z,23.5
2022-12-19T05:29:59.799Z,23.51
2022-12-19T05:32:04.174Z,23.48
2022-12-19T05:34:08.523Z,23.47
2022-12-19T05:36:12.909Z,23.47
2022-12-19T05:38:17.272Z,23.48
2022-12-19T05:40:21.663Z,23.47
2022-12-19T05:42:26.048Z,23.47
2022-12-19T05:44:30.386Z,23.48
2022-12-19T05:46:34.813Z,23.48
2022-12-19T05:48:39.542Z,23.48
2022-12-19T05:50:44.401Z,23.48
2022-12-19T05:52:48.790Z,23.47
2022-12-19T05:54:53.609Z,23.47
2022-12-19T05:56:57.981Z,23.49
2022-12-19T05:59:04.428Z,23.51
2022-12-19T06:01:08.812Z,23.52
2022-12-19T06:03:13.261Z,23.52
2022-12-19T06:05:18.212Z,23.55
2022-12-19T06:07:22.584Z,23.54
2022-12-19T06:09:26.996Z,23.55
2022-12-19T06:11:31.477Z,23.56
2022-12-19T06:13:35.854Z,23.58
2022-12-19T06:15:40.286Z,23.56
2022-12-19T06:17:44.758Z,23.57
2022-12-19T06:19:49.107Z,23.56
2022-12-19T06:21:53.515Z,23.55
2022-12-19T06:23:59.171Z,23.54
2022-12-19T06:26:03.541Z,23.55
2022-12-19T06:28:07.955Z,23.54
2022-12-19T06:30:12.892Z,23.53
2022-12-19T06:32:17.277Z,23.54
2022-12-19T06:34:39.767Z,23.59
2022-12-19T06:37:08.413Z,23.57
2022-12-19T06:39:13.000Z,23.56
2022-12-19T06:41:17.901Z,23.59
2022-12-19T06:43:22.279Z,23.61
2022-12-19T06:45:26.662Z,23.62
2022-12-19T06:47:31.327Z,23.65
2022-12-19T06:49:35.718Z,23.64
2022-12-19T06:51:40.087Z,23.65
2022-12-19T06:53:44.465Z,23.64
2022-12-19T06:55:48.854Z,23.65
2022-12-19T06:57:53.235Z,23.64
2022-12-19T06:59:57.594Z,23.63
2022-12-19T07:02:03.054Z,23.64
2022-12-19T07:04:07.756Z,23.64
2022-12-19T07:06:12.200Z,23.62
2022-12-19T07:08:16.582Z,23.61
2022-12-19T07:10:21.008Z,23.62
2022-12-19T07:12:25.512Z,23.61
2022-12-19T07:14:29.864Z,23.63
2022-12-19T07:16:34.346Z,23.57
2022-12-19T07:18:39.012Z,23.58
2022-12-19T07:20:45.299Z,23.58
2022-12-19T07:22:49.919Z,23.59
2022-12-19T07:24:54.884Z,23.54
2022-12-19T07:26:59.294Z,23.55
2022-12-19T07:29:03.667Z,23.56
2022-12-19T07:31:10.743Z,23.56
2022-12-19T07:33:19.802Z,23.55
2022-12-19T07:35:25.808Z,23.54
2022-12-19T07:37:30.210Z,23.52
2022-12-19T07:39:34.577Z,23.55
2022-12-19T07:41:39.036Z,23.56
2022-12-19T07:43:43.393Z,23.57
2022-12-19T07:45:47.754Z,23.58
2022-12-19T07:47:52.340Z,23.55
2022-12-19T07:49:56.709Z,23.53
2022-12-19T07:52:01.097Z,23.48
2022-12-19T07:54:05.479Z,23.48
2022-12-19T07:56:09.877Z,23.47
2022-12-19T07:58:15.419Z,23.46
2022-12-19T08:00:19.730Z,23.48
2022-12-19T08:02:24.422Z,23.49
2022-12-19T08:04:30.001Z,23.52
2022-12-19T08:06:39.243Z,23.53
2022-12-19T08:08:45.233Z,23.52
2022-12-19T08:10:49.764Z,23.5
2022-12-19T08:12:54.168Z,23.51
2022-12-19T08:14:58.582Z,23.49
2022-12-19T08:19:37.655Z,23.44
2022-12-19T08:21:42.007Z,23.43
2022-12-19T08:23:46.420Z,23.4
2022-12-19T08:25:50.889Z,23.4
2022-12-19T08:27:55.312Z,23.38
2022-12-19T08:29:59.743Z,23.39
2022-12-19T08:32:04.219Z,23.38
2022-12-19T08:34:08.608Z,23.39
2022-12-19T08:36:13.013Z,23.39
2022-12-19T08:38:17.407Z,23.41
2022-12-19T08:40:21.842Z,23.39
2022-12-19T08:42:26.298Z,23.41
2022-12-19T08:44:30.797Z,23.4
2022-12-19T08:46:35.288Z,23.41
2022-12-19T08:48:40.004Z,23.42
2022-12-19T08:50:44.453Z,23.4
2022-12-19T08:52:48.854Z,23.42
2022-12-19T08:54:53.374Z,23.42
2022-12-19T08:56:57.925Z,23.44
2022-12-19T08:59:02.351Z,23.44
2022-12-19T09:01:06.847Z,23.45
2022-12-19T09:03:11.786Z,23.45
2022-12-19T09:06:02.763Z,23.47
2022-12-19T09:08:21.649Z,23.49
2022-12-19T09:10:26.065Z,23.53
2022-12-19T09:12:30.558Z,23.54
2022-12-19T09:14:34.947Z,23.56
2022-12-19T09:16:39.409Z,23.59
2022-12-19T09:18:48.387Z,23.59
2022-12-19T09:20:53.139Z,23.6
2022-12-19T09:22:57.538Z,23.56
2022-12-19T09:25:02.011Z,23.59
2022-12-19T09:27:09.796Z,23.58
2022-12-19T09:29:20.234Z,23.58
2022-12-19T09:31:26.054Z,23.6
2022-12-19T09:33:30.758Z,23.64
2022-12-19T09:35:39.211Z,23.64
2022-12-19T09:37:43.645Z,23.63
2022-12-19T09:39:48.192Z,23.64
2022-12-19T09:41:52.674Z,23.66
2022-12-19T09:43:57.258Z,23.71
2022-12-19T09:46:05.771Z,23.75
2022-12-19T09:48:10.393Z,23.77
2022-12-19T09:50:28.601Z,23.8
2022-12-19T09:52:33.343Z,23.8
2022-12-19T09:54:37.820Z,23.78
2022-12-19T09:56:46.071Z,23.81
2022-12-19T09:58:50.964Z,23.83
2022-12-19T10:00:59.593Z,23.86
2022-12-19T10:03:04.700Z,23.76
2022-12-19T10:05:13.866Z,23.86
2022-12-19T10:11:18.174Z,23.9
2022-12-19T10:15:01.116Z,23.92
2022-12-19T10:19:40.090Z,23.93
2022-12-19T10:22:16.101Z,23.92
2022-12-19T10:24:22.983Z,23.93
2022-12-19T10:26:30.528Z,23.92
2022-12-19T10:28:35.130Z,23.91
2022-12-19T10:30:39.528Z,23.89
2022-12-19T10:32:43.957Z,23.86
2022-12-19T10:34:48.376Z,23.86
2022-12-19T10:39:46.089Z,23.86
2022-12-19T10:41:50.618Z,23.86
2022-12-19T10:43:55.120Z,23.86
2022-12-19T10:45:59.620Z,23.84
2022-12-19T10:48:04.410Z,23.84
2022-12-19T10:50:09.793Z,23.82
2022-12-19T10:52:14.366Z,23.82
2022-12-19T10:54:18.887Z,23.84
2022-12-19T10:56:23.373Z,23.82
2022-12-19T10:58:40.519Z,23.84
2022-12-19T11:00:45.094Z,23.81
2022-12-19T11:02:49.704Z,23.83
2022-12-19T11:04:55.948Z,23.83
2022-12-19T11:07:00.798Z,23.8
2022-12-19T11:09:05.380Z,23.79
2022-12-19T11:11:44.267Z,23.81
2022-12-19T11:33:30.414Z,24.06
2022-12-19T11:35:36.441Z,24.06
2022-12-19T11:37:41.361Z,24.07
2022-12-19T11:39:45.795Z,24.06
2022-12-19T11:41:50.240Z,24.03
2022-12-19T11:43:55.831Z,24.02
2022-12-19T11:46:00.248Z,24
2022-12-19T11:48:04.751Z,23.98
2022-12-19T11:50:09.149Z,23.95
2022-12-19T11:52:29.685Z,23.94
2022-12-19T11:55:21.988Z,23.92
2022-12-19T11:57:26.424Z,23.94
2022-12-19T11:59:32.291Z,23.95
2022-12-19T12:01:36.693Z,23.96
2022-12-19T12:03:41.378Z,23.94
2022-12-19T12:06:06.083Z,23.95
2022-12-19T12:08:58.556Z,23.95
2022-12-19T12:36:48.689Z,24.03
2022-12-19T12:40:24.370Z,24.09
2022-12-19T12:42:28.836Z,24.08
2022-12-19T12:44:33.731Z,24.07
2022-12-19T12:46:47.752Z,24.08
2022-12-19T12:48:52.303Z,24.05
2022-12-19T12:50:56.690Z,24.02
2022-12-19T12:53:02.126Z,24.07
2022-12-19T12:55:06.567Z,24.08
2022-12-19T12:57:11.055Z,24.1
2022-12-19T12:59:15.472Z,24.1
2022-12-19T13:01:20.141Z,24.09
2022-12-19T13:03:25.687Z,24.07
2022-12-19T13:05:30.276Z,24.06
2022-12-19T13:07:34.711Z,24.06
2022-12-19T13:09:42.140Z,24.05
2022-12-19T13:11:46.614Z,24.05
2022-12-19T13:13:51.096Z,24.06
2022-12-19T13:15:55.477Z,24.05
2022-12-19T13:17:59.871Z,24.06
2022-12-19T13:20:04.341Z,24.08
2022-12-19T13:22:08.823Z,24.08
2022-12-19T13:24:15.926Z,24.1
2022-12-19T13:26:20.755Z,24.09
2022-12-19T13:28:25.162Z,24.1
2022-12-19T13:30:29.623Z,24.08
2022-12-19T13:32:34.470Z,24.05
2022-12-19T13:34:43.801Z,24.02
2022-12-19T13:41:54.835Z,24.01
2022-12-19T13:43:59.313Z,24.04
2022-12-19T13:46:03.870Z,24.06
2022-12-19T13:48:08.538Z,24.04
2022-12-19T13:50:14.374Z,24.02
2022-12-19T13:52:18.772Z,24
2022-12-19T13:54:23.215Z,24.01
2022-12-19T13:56:27.720Z,23.99
2022-12-19T13:58:32.134Z,23.98
2022-12-19T14:00:36.623Z,24
2022-12-19T14:02:44.678Z,23.99
2022-12-19T14:04:50.501Z,23.95
2022-12-19T14:06:54.942Z,23.98
2022-12-19T14:10:02.658Z,23.97
2022-12-19T14:15:45.611Z,23.98
2022-12-19T14:17:56.959Z,24
2022-12-19T14:22:02.896Z,23.99
2022-12-19T14:24:28.326Z,23.98
2022-12-19T14:28:22.653Z,23.97
2022-12-19T14:30:34.123Z,24.04
2022-12-19T14:33:23.992Z,24.08
2022-12-19T14:36:49.381Z,24.2
2022-12-19T14:39:21.901Z,24.25
2022-12-19T14:41:33.279Z,24.31
2022-12-19T14:43:56.099Z,24.34
2022-12-19T14:57:03.469Z,24.74
2022-12-19T14:59:09.203Z,24.77
2022-12-19T15:01:16.659Z,24.79
2022-12-19T15:03:27.983Z,24.82
2022-12-19T15:05:33.083Z,24.82
2022-12-19T15:07:38.868Z,24.82
2022-12-19T15:11:01.187Z,24.83
2022-12-19T15:14:50.358Z,24.86
2022-12-19T15:17:03.857Z,24.82
2022-12-19T15:19:08.234Z,24.83
2022-12-19T15:21:12.730Z,24.83
2022-12-19T15:23:21.868Z,24.83
2022-12-19T15:26:01.878Z,24.81
2022-12-19T15:28:10.833Z,24.8
2022-12-19T15:30:15.236Z,24.79
2022-12-19T15:32:19.781Z,24.76
2022-12-19T15:34:34.616Z,24.78
2022-12-19T15:36:53.665Z,24.77
2022-12-19T15:38:58.047Z,24.8
2022-12-19T15:41:02.475Z,24.8
2022-12-19T15:43:37.382Z,24.79
2022-12-19T15:46:08.381Z,24.79
2022-12-19T15:48:13.052Z,24.79
2022-12-19T15:50:17.508Z,24.82
2022-12-19T15:52:21.993Z,24.82
2022-12-19T15:57:00.919Z,24.81
2022-12-19T15:59:05.347Z,24.82
2022-12-19T16:01:09.806Z,24.81
2022-12-19T16:03:22.982Z,24.83
2022-12-19T16:05:30.249Z,24.85
2022-12-19T16:07:35.331Z,24.84
2022-12-19T16:09:39.702Z,24.82
2022-12-19T16:11:44.112Z,24.81
2022-12-19T16:13:48.528Z,24.81
2022-12-19T16:15:53.011Z,24.82
2022-12-19T16:17:57.611Z,24.83
2022-12-19T16:20:02.190Z,24.82
2022-12-19T16:22:06.677Z,24.83
2022-12-19T16:24:11.166Z,24.84
2022-12-19T16:26:15.598Z,24.84
2022-12-19T16:28:20.102Z,24.82
2022-12-19T16:30:24.531Z,24.8
2022-12-19T16:32:28.940Z,24.77
2022-12-19T16:34:33.414Z,24.78
2022-12-19T16:36:37.796Z,24.76
2022-12-19T16:38:43.718Z,24.74
2022-12-19T16:40:48.251Z,24.74
2022-12-19T16:42:52.671Z,24.74
2022-12-19T16:44:57.234Z,24.74
2022-12-19T16:47:01.726Z,24.71
2022-12-19T16:49:06.369Z,24.71
2022-12-19T16:51:10.799Z,24.73
2022-12-19T16:53:15.207Z,24.71
2022-12-19T16:55:19.624Z,24.8
2022-12-19T16:57:24.056Z,24.78
2022-12-19T16:59:28.487Z,24.81
2022-12-19T17:01:33.048Z,24.82
2022-12-19T17:03:37.985Z,24.83
2022-12-19T17:05:42.773Z,24.82
2022-12-19T17:07:47.203Z,24.83
2022-12-19T17:09:51.621Z,24.86
2022-12-19T17:11:56.168Z,24.87
2022-12-19T17:14:00.747Z,24.83
2022-12-19T17:16:05.165Z,24.69
2022-12-19T17:18:09.729Z,24.41
2022-12-19T17:20:14.300Z,24.4
2022-12-19T17:22:18.773Z,24.4
2022-12-19T17:24:23.185Z,24.42
2022-12-19T17:26:27.579Z,24.44
2022-12-19T17:28:31.995Z,24.45
2022-12-19T17:30:36.404Z,24.47
2022-12-19T17:32:41.169Z,24.47
2022-12-19T17:34:45.941Z,24.49
2022-12-19T17:36:50.386Z,24.53
2022-12-19T17:38:54.833Z,24.52
2022-12-19T17:40:59.252Z,24.53
2022-12-19T17:43:04.229Z,24.58
2022-12-19T17:45:08.654Z,24.61
2022-12-19T17:47:13.144Z,24.67
2022-12-19T17:49:17.561Z,24.73
2022-12-19T17:51:21.999Z,24.73
2022-12-19T17:53:26.540Z,24.75
2022-12-19T17:55:30.952Z,24.83
2022-12-19T17:57:35.403Z,24.86
2022-12-19T17:59:39.845Z,24.87
2022-12-19T18:01:44.513Z,24.89
2022-12-19T18:03:49.774Z,24.9
2022-12-19T18:05:54.460Z,24.92
2022-12-19T18:07:59.054Z,24.92
2022-12-19T18:10:03.593Z,24.92
2022-12-19T18:12:08.113Z,24.92
2022-12-19T18:14:12.604Z,24.9
2022-12-19T18:16:17.060Z,24.89
2022-12-19T18:18:22.868Z,24.88
2022-12-19T18:20:31.417Z,24.89
2022-12-19T18:22:36.539Z,24.86
2022-12-19T18:24:41.843Z,24.86
2022-12-19T18:26:46.315Z,24.85
2022-12-19T18:28:50.738Z,24.85
2022-12-19T18:30:55.166Z,24.86
2022-12-19T18:32:59.781Z,24.86
2022-12-19T18:35:04.378Z,24.85
2022-12-19T18:37:08.814Z,24.86
2022-12-19T18:39:13.303Z,24.85
2022-12-19T18:41:17.882Z,24.86
2022-12-19T18:43:22.364Z,24.86
2022-12-19T18:45:27.065Z,24.86
2022-12-19T18:47:31.811Z,24.85
2022-12-19T18:49:36.332Z,24.79
2022-12-19T18:51:41.395Z,24.79
2022-12-19T18:53:45.883Z,24.72
2022-12-19T18:55:50.481Z,24.7
2022-12-19T18:57:54.996Z,24.72
2022-12-19T18:59:59.489Z,24.7
2022-12-19T19:02:04.212Z,24.72
2022-12-19T19:04:09.662Z,24.74
2022-12-19T19:06:14.240Z,24.77
2022-12-19T19:08:18.901Z,24.84
2022-12-19T19:10:23.444Z,24.85
2022-12-19T19:12:28.032Z,24.89
2022-12-19T19:14:32.473Z,24.9
2022-12-19T19:16:37.068Z,24.89
2022-12-19T19:18:42.148Z,24.9
2022-12-19T19:20:47.453Z,24.9
2022-12-19T19:22:51.912Z,24.96
2022-12-19T19:24:56.426Z,25.02
2022-12-19T19:27:00.905Z,25.04
2022-12-19T19:29:05.354Z,25.1
2022-12-19T19:31:09.931Z,25.13
2022-12-19T19:33:14.717Z,25.14
2022-12-19T19:35:19.307Z,25.12
2022-12-19T19:37:23.980Z,25.14
2022-12-19T19:39:28.431Z,25.14
2022-12-19T19:41:33.075Z,25.16
2022-12-19T19:43:37.556Z,25.19
2022-12-19T19:45:43.579Z,25.24
2022-12-19T19:47:48.379Z,25.27
2022-12-19T19:49:52.854Z,25.29
2022-12-19T19:52:02.410Z,25.3
2022-12-19T19:54:07.599Z,25.31
2022-12-19T19:56:12.210Z,25.29
2022-12-19T19:58:16.830Z,25.3
2022-12-19T20:00:21.493Z,25.33
2022-12-19T20:02:26.215Z,25.32
2022-12-19T20:04:31.565Z,25.31
2022-12-19T20:06:36.339Z,25.37
2022-12-19T20:08:41.173Z,25.35
2022-12-19T20:10:45.707Z,25.33
2022-12-19T20:12:50.177Z,25.29
2022-12-19T20:14:54.633Z,25.26
2022-12-19T20:16:59.176Z,25.26
2022-12-19T20:19:03.587Z,25.27
2022-12-19T20:21:12.493Z,25.29
2022-12-19T20:23:17.648Z,25.31
2022-12-19T20:25:22.118Z,25.32
2022-12-19T20:27:26.576Z,25.31
2022-12-19T20:29:31.023Z,25.33
2022-12-19T20:31:35.596Z,25.35
2022-12-19T20:33:40.193Z,25.38
2022-12-19T20:35:44.630Z,25.4
2022-12-19T20:37:49.167Z,25.42
2022-12-19T20:39:53.687Z,25.43
2022-12-19T20:41:58.157Z,25.43
2022-12-19T20:44:02.569Z,25.47
2022-12-19T20:46:07.178Z,25.53
2022-12-19T20:48:12.007Z,25.55
2022-12-19T20:50:16.570Z,25.57
2022-12-19T20:52:21.168Z,25.6
2022-12-19T20:54:25.681Z,25.62
2022-12-19T20:56:30.146Z,25.63
2022-12-19T20:58:34.636Z,25.65
2022-12-19T21:00:39.051Z,25.68
2022-12-19T21:03:17.190Z,25.65
2022-12-19T21:05:33.373Z,25.7
2022-12-19T21:07:37.750Z,25.73
2022-12-19T21:09:42.157Z,25.75
2022-12-19T21:11:46.592Z,25.74
2022-12-19T21:13:51.138Z,25.73
2022-12-19T21:15:55.660Z,25.69
2022-12-19T21:18:00.340Z,25.64
2022-12-19T21:20:04.836Z,25.69
2022-12-19T21:22:09.279Z,25.68
2022-12-19T21:24:13.722Z,25.64
2022-12-19T21:26:18.244Z,25.56
2022-12-19T21:28:22.786Z,25.52
2022-12-19T21:30:27.208Z,25.5
2022-12-19T21:32:31.655Z,25.46
2022-12-19T21:34:36.143Z,25.43
2022-12-19T21:36:40.559Z,25.43
2022-12-19T21:38:45.006Z,25.43
2022-12-19T21:40:49.567Z,25.4
2022-12-19T21:42:54.026Z,25.35
2022-12-19T21:44:58.524Z,25.31
2022-12-19T21:47:03.059Z,25.29
2022-12-19T21:49:07.907Z,25.24
2022-12-19T21:51:12.349Z,25.23
2022-12-19T21:53:16.826Z,25.19
2022-12-19T21:55:21.341Z,25.14
2022-12-19T21:57:25.740Z,25.13
2022-12-19T21:59:30.148Z,25.16
2022-12-19T22:01:34.716Z,25.17
2022-12-19T22:03:40.087Z,25.18
2022-12-19T22:05:45.049Z,25.18
2022-12-19T22:07:49.535Z,25.15
2022-12-19T22:09:53.942Z,25.15
2022-12-19T22:11:58.560Z,25.15
2022-12-19T22:14:03.039Z,25.17
2022-12-19T22:16:07.677Z,25.21
2022-12-19T22:18:12.277Z,25.24
2022-12-19T22:20:16.795Z,25.23
2022-12-19T22:22:21.270Z,25.21
2022-12-19T22:24:25.724Z,25.2
2022-12-19T22:26:30.199Z,25.18
2022-12-19T22:28:34.611Z,25.16
2022-12-19T22:30:38.990Z,25.13
2022-12-19T22:32:43.382Z,25.1
2022-12-19T22:34:47.798Z,25.08
2022-12-19T22:36:52.294Z,25.05
2022-12-19T22:38:56.852Z,25.03
2022-12-19T22:41:01.294Z,25.05
2022-12-19T22:43:05.686Z,25.06
2022-12-19T22:45:10.133Z,25.05
2022-12-19T22:47:14.504Z,25.04
2022-12-19T22:49:18.904Z,25.02
2022-12-19T22:51:23.483Z,25.05
2022-12-19T22:53:27.895Z,25.03
2022-12-19T22:55:32.424Z,25.03
2022-12-19T22:57:36.815Z,24.98
2022-12-19T22:59:41.350Z,24.97
2022-12-19T23:01:45.935Z,24.93
2022-12-19T23:03:51.184Z,24.93
2022-12-19T23:05:56.167Z,24.91
2022-12-19T23:08:00.544Z,24.89
2022-12-19T23:10:04.893Z,24.87
2022-12-19T23:12:09.333Z,24.87
2022-12-19T23:14:13.779Z,24.88
2022-12-19T23:16:18.260Z,24.86
2022-12-19T23:18:22.933Z,24.86
2022-12-19T23:20:27.311Z,24.86
2022-12-19T23:22:31.722Z,24.89
2022-12-19T23:24:36.471Z,24.91
2022-12-19T23:26:41.420Z,24.91
2022-12-19T23:28:45.949Z,24.93
2022-12-19T23:30:50.302Z,24.9
2022-12-19T23:32:54.697Z,24.91
2022-12-19T23:34:59.121Z,24.93
2022-12-19T23:37:12.075Z,24.9
2022-12-19T23:39:16.848Z,24.92
2022-12-19T23:41:21.269Z,24.91
2022-12-19T23:43:25.904Z,24.92
2022-12-19T23:45:30.817Z,24.89
2022-12-19T23:47:35.415Z,24.95
2022-12-19T23:49:39.787Z,24.96
2022-12-19T23:51:44.200Z,24.96
2022-12-19T23:53:48.593Z,24.96
2022-12-19T23:55:53.014Z,24.95
2022-12-19T23:57:57.553Z,24.95
